createdAt,value
2024-03-12T00:00:18.176Z,100190.81
2024-03-12T00:02:47.342Z,100185.03
2024-03-12T00:05:15.721Z,100178.56
2024-03-12T00:07:44.288Z,100197.28
2024-03-12T00:10:16.581Z,100192.50
2024-03-12T00:12:49.292Z,100199.59
2024-03-12T00:15:21.393Z,100191.78
2024-03-12T00:17:50.583Z,100192.00
2024-03-12T00:20:18.794Z,100196.34
2024-03-12T00:22:50.339Z,100185.03
2024-03-12T00:25:20.505Z,100190.09
2024-03-12T00:27:48.207Z,100200.66
2024-03-12T00:30:16.587Z,100193.72
2024-03-12T00:32:44.739Z,100192.97
2024-03-12T00:35:11.899Z,100198.25
2024-03-12T00:37:42.533Z,100192.97
2024-03-12T00:40:13.755Z,100192.97
2024-03-12T00:42:45.208Z,100198.25
2024-03-12T00:45:12.994Z,100195.13
2024-03-12T00:47:44.218Z,100184.69
2024-03-12T00:50:15.574Z,100195.84
2024-03-12T00:52:44.570Z,100195.84
2024-03-12T00:55:11.813Z,100199.00
2024-03-12T00:57:44.144Z,100204.50
2024-03-12T01:00:18.324Z,100198.13
2024-03-12T01:02:50.622Z,100204.50
2024-03-12T01:05:19.082Z,100207.63
2024-03-12T01:07:49.182Z,100202.09
2024-03-12T01:10:21.834Z,100204.97
2024-03-12T01:12:50.403Z,100204.97
2024-03-12T01:15:19.677Z,100204.34
2024-03-12T01:17:47.554Z,100201.00
2024-03-12T01:20:17.914Z,100188.03
2024-03-12T01:22:45.386Z,100204.56
2024-03-12T01:25:13.313Z,100199.28
2024-03-12T01:27:43.339Z,100194.88
2024-03-12T01:30:27.892Z,100185.38
2024-03-12T01:32:56.617Z,100200.25
2024-03-12T01:35:26.196Z,100193.63
2024-03-12T01:37:54.547Z,100201.31
2024-03-12T01:40:24.247Z,100203.97
2024-03-12T01:42:58.544Z,100205.69
2024-03-12T01:45:26.741Z,100202.66
2024-03-12T01:47:56.787Z,100201.00
2024-03-12T01:50:27.864Z,100199.53
2024-03-12T01:52:58.536Z,100201.09
2024-03-12T01:55:25.509Z,100210.72
2024-03-12T01:57:53.855Z,100204.47
2024-03-12T02:00:21.617Z,100211.78
2024-03-12T02:02:53.832Z,100212.25
2024-03-12T02:05:23.987Z,100220.78
2024-03-12T02:07:52.575Z,100213.81
2024-03-12T02:10:20.536Z,100215.38
2024-03-12T02:12:48.467Z,100216.56
2024-03-12T02:15:19.624Z,100209.63
2024-03-12T02:17:46.921Z,100212.84
2024-03-12T02:20:14.646Z,100215.50
2024-03-12T02:22:42.030Z,100222.59
2024-03-12T02:25:13.148Z,100227.25
2024-03-12T02:27:43.799Z,100221.97
2024-03-12T02:30:11.692Z,100221.13
2024-03-12T02:32:39.963Z,100231.44
2024-03-12T02:35:12.741Z,100230.84
2024-03-12T02:37:42.796Z,100231.06
2024-03-12T02:40:14.760Z,100239.72
2024-03-12T02:42:45.832Z,100230.97
2024-03-12T02:45:17.944Z,100241.19
2024-03-12T02:47:47.234Z,100238.06
2024-03-12T02:50:33.853Z,100243.22
2024-03-12T02:53:00.914Z,100234.44
2024-03-12T02:55:29.047Z,100238.06
2024-03-12T02:57:56.132Z,100225.78
2024-03-12T03:00:23.219Z,100233.63
2024-03-12T03:02:50.557Z,100235.41
2024-03-12T03:05:17.532Z,100227.38
2024-03-12T03:07:44.696Z,100233.63
2024-03-12T03:10:13.291Z,100233.63
2024-03-12T03:12:44.219Z,100241.63
2024-03-12T03:15:15.008Z,100236.34
2024-03-12T03:17:47.240Z,100244.19
2024-03-12T03:20:16.446Z,100244.19
2024-03-12T03:22:44.328Z,100254.13
2024-03-12T03:25:15.815Z,100251.34
2024-03-12T03:27:44.665Z,100250.63
2024-03-12T03:30:14.512Z,100243.56
2024-03-12T03:32:42.077Z,100252.19
2024-03-12T03:35:09.369Z,100266.97
2024-03-12T03:37:37.200Z,100252.94
2024-03-12T03:40:24.071Z,100260.63
2024-03-12T03:42:53.372Z,100259.78
2024-03-12T03:45:21.014Z,100254.50
2024-03-12T03:47:48.184Z,100263.03
2024-03-12T03:50:15.464Z,100260.63
2024-03-12T03:52:42.785Z,100268.31
2024-03-12T03:55:10.703Z,100265.06
2024-03-12T03:57:37.840Z,100275.50
2024-03-12T04:00:14.024Z,100277.00
2024-03-12T04:02:44.711Z,100280.47
2024-03-12T04:05:13.512Z,100276.03
2024-03-12T04:07:42.429Z,100277.00
2024-03-12T04:10:13.507Z,100282.50
2024-03-12T04:12:44.026Z,100285.13
2024-03-12T04:15:11.367Z,100278.16
2024-03-12T04:17:39.145Z,100277.31
2024-03-12T04:20:13.098Z,100291.88
2024-03-12T04:22:46.944Z,100288.47
2024-03-12T04:25:16.856Z,100297.88
2024-03-12T04:27:45.663Z,100294.06
2024-03-12T04:30:15.007Z,100300.16
2024-03-12T04:32:42.338Z,100304.25
2024-03-12T04:35:11.351Z,100307.53
2024-03-12T04:37:38.604Z,100308.25
2024-03-12T04:40:08.406Z,100308.03
2024-03-12T04:42:36.950Z,100315.09
2024-03-12T04:45:08.821Z,100317.63
2024-03-12T04:47:39.102Z,100331.56
2024-03-12T04:50:09.541Z,100325.97
2024-03-12T04:52:36.928Z,100328.00
2024-03-12T04:55:06.459Z,100333.06
2024-03-12T04:57:36.102Z,100329.22
2024-03-12T05:00:15.262Z,100334.50
2024-03-12T05:02:43.145Z,100334.78
2024-03-12T05:05:10.207Z,100337.94
2024-03-12T05:07:37.283Z,100336.63
2024-03-12T05:10:05.934Z,100348.75
2024-03-12T05:12:33.020Z,100341.31
2024-03-12T05:15:00.005Z,100345.66
2024-03-12T05:17:27.183Z,100344.34
2024-03-12T05:19:54.490Z,100341.59
2024-03-12T05:22:21.708Z,100343.28
2024-03-12T05:24:48.930Z,100346.19
2024-03-12T05:27:22.870Z,100344.63
2024-03-12T05:29:53.952Z,100344.84
2024-03-12T05:32:22.687Z,100347.00
2024-03-12T05:34:53.817Z,100334.59
2024-03-12T05:37:30.287Z,100344.84
2024-03-12T05:40:16.314Z,100345.78
2024-03-12T05:43:04.449Z,100339.91
2024-03-12T05:45:50.200Z,100345.66
2024-03-12T05:48:17.263Z,100348.19
2024-03-12T05:50:44.320Z,100350.94
2024-03-12T05:53:11.967Z,100349.28
2024-03-12T05:55:41.560Z,100348.78
2024-03-12T05:58:09.739Z,100345.16
2024-03-12T06:00:36.888Z,100357.88
2024-03-12T06:03:04.557Z,100355.31
2024-03-12T06:05:31.834Z,100357.13
2024-03-12T06:08:01.214Z,100359.72
2024-03-12T06:10:28.372Z,100362.69
2024-03-12T06:12:55.504Z,100361.97
2024-03-12T06:15:22.464Z,100366.97
2024-03-12T06:17:49.567Z,100353.38
2024-03-12T06:20:17.174Z,100360.56
2024-03-12T06:22:44.961Z,100356.69
2024-03-12T06:25:12.224Z,100344.09
2024-03-12T06:27:39.937Z,100362.41
2024-03-12T06:30:07.925Z,100355.19
2024-03-12T06:32:35.278Z,100359.25
2024-03-12T06:35:02.271Z,100360.53
2024-03-12T06:37:31.345Z,100361.94
2024-03-12T06:40:00.172Z,100358.03
2024-03-12T06:42:27.753Z,100365.63
2024-03-12T06:44:55.669Z,100369.28
2024-03-12T06:47:22.643Z,100371.94
2024-03-12T06:49:50.200Z,100370.59
2024-03-12T06:52:17.711Z,100374.53
2024-03-12T06:54:45.645Z,100381.97
2024-03-12T06:57:13.013Z,100372.09
2024-03-12T06:59:45.073Z,100372.53
2024-03-12T07:02:12.931Z,100360.91
2024-03-12T07:04:46.022Z,100367.38
2024-03-12T07:07:15.003Z,100359.97
2024-03-12T07:09:42.736Z,100365.69
2024-03-12T07:12:10.083Z,100368.22
2024-03-12T07:14:43.006Z,100366.84
2024-03-12T07:17:11.541Z,100368.25
2024-03-12T07:19:39.373Z,100370.63
2024-03-12T07:22:10.343Z,100374.69
2024-03-12T07:24:37.971Z,100376.09
2024-03-12T07:27:05.470Z,100382.25
2024-03-12T07:29:36.218Z,100371.06
2024-03-12T07:32:05.190Z,100372.06
2024-03-12T07:34:32.781Z,100381.59
2024-03-12T07:37:01.723Z,100387.19
2024-03-12T07:39:36.162Z,100381.28
2024-03-12T07:42:14.842Z,100384.75
2024-03-12T07:44:42.924Z,100388.56
2024-03-12T07:47:11.574Z,100374.53
2024-03-12T07:49:39.015Z,100370.34
2024-03-12T07:52:12.820Z,100376.78
2024-03-12T07:54:40.359Z,100374.06
2024-03-12T07:57:09.131Z,100379.34
2024-03-12T07:59:36.101Z,100363.22
2024-03-12T08:02:12.932Z,100370.16
2024-03-12T08:04:46.318Z,100370.00
2024-03-12T08:07:14.731Z,100377.16
2024-03-12T08:09:43.720Z,100375.22
2024-03-12T08:12:17.602Z,100368.00
2024-03-12T08:14:45.972Z,100363.03
2024-03-12T08:17:13.825Z,100373.19
2024-03-12T08:19:42.198Z,100360.09
2024-03-12T08:22:09.921Z,100357.41
2024-03-12T08:24:38.659Z,100369.53
2024-03-12T08:27:06.921Z,100366.81
2024-03-12T08:29:34.741Z,100358.72
2024-03-12T08:32:01.884Z,100355.31
2024-03-12T08:34:29.317Z,100367.63
2024-03-12T08:36:57.355Z,100362.94
2024-03-12T08:39:29.450Z,100364.69
2024-03-12T08:41:57.073Z,100363.06
2024-03-12T08:44:24.985Z,100359.69
2024-03-12T08:46:52.380Z,100356.72
2024-03-12T08:49:19.532Z,100367.25
2024-03-12T08:51:46.767Z,100371.91
2024-03-12T08:54:15.445Z,100366.06
2024-03-12T08:56:44.274Z,100372.84
2024-03-12T08:59:15.338Z,100363.41
2024-03-12T09:01:44.999Z,100366.28
2024-03-12T09:04:12.790Z,100357.88
2024-03-12T09:06:42.274Z,100370.06
2024-03-12T09:09:09.724Z,100359.13
2024-03-12T09:11:40.030Z,100361.28
2024-03-12T09:14:08.269Z,100355.97
2024-03-12T09:16:35.777Z,100362.78
2024-03-12T09:19:02.804Z,100356.63
2024-03-12T09:21:30.051Z,100351.06
2024-03-12T09:24:01.926Z,100360.16
2024-03-12T09:26:30.562Z,100358.03
2024-03-12T09:28:59.179Z,100351.75
2024-03-12T09:31:27.052Z,100344.44
2024-03-12T09:33:55.474Z,100352.66
2024-03-12T09:36:22.569Z,100358.06
2024-03-12T09:38:52.057Z,100358.94
2024-03-12T09:41:21.948Z,100349.06
2024-03-12T09:43:49.994Z,100348.97
2024-03-12T09:46:18.274Z,100357.19
2024-03-12T09:48:46.960Z,100348.59
2024-03-12T09:51:15.252Z,100340.44
2024-03-12T09:53:47.989Z,100345.81
2024-03-12T09:56:17.544Z,100346.16
2024-03-12T09:58:45.935Z,100343.19
2024-03-12T10:01:14.020Z,100342.47
2024-03-12T10:03:42.327Z,100336.19
2024-03-12T10:06:10.664Z,100336.81
2024-03-12T10:08:38.049Z,100339.19
2024-03-12T10:11:10.180Z,100344.84
2024-03-12T10:13:41.774Z,100347.81
2024-03-12T10:16:09.741Z,100345.28
2024-03-12T10:18:38.915Z,100334.91
2024-03-12T10:21:08.515Z,100337.56
2024-03-12T10:23:41.477Z,100346.75
2024-03-12T10:26:19.593Z,100323.84
2024-03-12T10:28:47.313Z,100330.28
2024-03-12T10:31:16.230Z,100327.78
2024-03-12T10:33:49.965Z,100327.28
2024-03-12T10:36:32.527Z,100334.13
2024-03-12T10:39:00.143Z,100331.34
2024-03-12T10:41:28.183Z,100332.75
2024-03-12T10:44:08.813Z,100322.63
2024-03-12T10:46:36.987Z,100320.06
2024-03-12T10:49:07.514Z,100320.88
2024-03-12T10:51:35.035Z,100323.25
2024-03-12T10:54:02.719Z,100321.97
2024-03-12T10:56:30.914Z,100319.38
2024-03-12T10:58:58.589Z,100319.72
2024-03-12T11:01:27.207Z,100321.00
2024-03-12T11:03:57.868Z,100322.25
2024-03-12T11:06:26.860Z,100323.53
2024-03-12T11:08:56.093Z,100326.66
2024-03-12T11:11:24.593Z,100323.38
2024-03-12T11:13:52.512Z,100316.94
2024-03-12T11:16:20.831Z,100323.69
2024-03-12T11:18:51.416Z,100326.22
2024-03-12T11:21:23.702Z,100328.13
2024-03-12T11:23:50.885Z,100324.00
2024-03-12T11:26:36.298Z,100315.06
2024-03-12T11:29:03.899Z,100318.47
2024-03-12T11:31:41.147Z,100316.59
2024-03-12T11:34:08.457Z,100321.13
2024-03-12T11:36:41.837Z,100318.28
2024-03-12T11:39:24.317Z,100314.41
2024-03-12T11:42:09.648Z,100322.81
2024-03-12T11:44:56.673Z,100329.50
2024-03-12T11:47:38.213Z,100328.06
2024-03-12T11:50:26.162Z,100325.06
2024-03-12T11:52:53.429Z,100324.38
2024-03-12T11:56:01.060Z,100326.09
2024-03-12T11:58:50.613Z,100329.66
2024-03-12T12:02:08.409Z,100315.28
2024-03-12T12:07:52.694Z,100325.41
2024-03-12T12:11:28.885Z,100327.34
2024-03-12T12:14:29.133Z,100323.09
2024-03-12T12:17:24.330Z,100307.72
2024-03-12T12:20:17.663Z,100331.25
2024-03-12T12:22:48.922Z,100327.13
2024-03-12T12:25:20.323Z,100324.66
2024-03-12T12:27:48.153Z,100322.19
2024-03-12T12:30:20.732Z,100309.06
2024-03-12T12:32:50.569Z,100328.78
2024-03-12T12:35:21.002Z,100323.75
2024-03-12T12:37:50.531Z,100322.66
2024-03-12T12:40:22.965Z,100319.06
2024-03-12T12:42:54.651Z,100320.03
2024-03-12T12:45:22.320Z,100322.19
2024-03-12T12:47:50.368Z,100312.28
2024-03-12T12:50:27.847Z,100321.81
2024-03-12T12:53:00.634Z,100310.03
2024-03-12T12:55:28.975Z,100313.81
2024-03-12T12:58:01.363Z,100317.50
2024-03-12T13:00:28.998Z,100309.13
2024-03-12T13:03:19.193Z,100309.69
2024-03-12T13:05:47.866Z,100315.31
2024-03-12T13:08:28.401Z,100308.31
2024-03-12T13:11:10.653Z,100315.75
2024-03-12T13:13:40.097Z,100323.19
2024-03-12T13:16:14.746Z,100316.91
2024-03-12T13:18:46.705Z,100317.03
2024-03-12T13:21:21.613Z,100317.03
2024-03-12T13:23:51.169Z,100308.94
2024-03-12T13:26:19.849Z,100314.81
2024-03-12T13:28:49.656Z,100313.97
2024-03-12T13:31:17.115Z,100308.53
2024-03-12T13:33:45.349Z,100317.34
2024-03-12T13:36:12.864Z,100319.31
2024-03-12T13:38:41.249Z,100317.63
2024-03-12T13:41:09.359Z,100314.28
2024-03-12T13:43:37.514Z,100318.88
2024-03-12T13:46:08.357Z,100315.53
2024-03-12T13:48:41.210Z,100309.53
2024-03-12T13:51:09.314Z,100310.91
2024-03-12T13:53:37.708Z,100314.25
2024-03-12T13:56:11.386Z,100300.56
2024-03-12T13:58:40.979Z,100304.19
2024-03-12T14:01:12.960Z,100303.91
2024-03-12T14:03:41.737Z,100309.50
2024-03-12T14:06:10.746Z,100300.81
2024-03-12T14:08:38.233Z,100304.03
2024-03-12T14:11:05.371Z,100306.84
2024-03-12T14:13:33.247Z,100298.31
2024-03-12T14:16:00.652Z,100302.50
2024-03-12T14:18:28.369Z,100303.34
2024-03-12T14:20:56.397Z,100305.28
2024-03-12T14:23:24.101Z,100307.50
2024-03-12T14:25:51.194Z,100309.59
2024-03-12T14:28:18.341Z,100306.97
2024-03-12T14:30:48.419Z,100316.47
2024-03-12T14:33:15.687Z,100310.59
2024-03-12T14:35:45.459Z,100310.16
2024-03-12T14:38:13.324Z,100316.28
2024-03-12T14:40:41.032Z,100313.91
2024-03-12T14:43:12.219Z,100316.16
2024-03-12T14:45:39.642Z,100314.28
2024-03-12T14:48:09.222Z,100304.47
2024-03-12T14:50:54.742Z,100319.94
2024-03-12T14:53:21.880Z,100315.31
2024-03-12T14:55:48.946Z,100323.66
2024-03-12T14:58:15.985Z,100309.13
2024-03-12T15:00:45.242Z,100314.56
2024-03-12T15:03:13.971Z,100318.84
2024-03-12T15:05:42.826Z,100312.13
2024-03-12T15:08:12.919Z,100308.31
2024-03-12T15:10:40.174Z,100309.97
2024-03-12T15:13:07.654Z,100313.84
2024-03-12T15:15:36.629Z,100307.91
2024-03-12T15:18:04.165Z,100318.50
2024-03-12T15:20:31.834Z,100314.44
2024-03-12T15:23:07.149Z,100317.63
2024-03-12T15:25:39.407Z,100315.84
2024-03-12T15:28:08.773Z,100309.97
2024-03-12T15:30:38.336Z,100323.13
2024-03-12T15:33:07.736Z,100319.16
2024-03-12T15:35:37.682Z,100327.63
2024-03-12T15:38:12.561Z,100320.91
2024-03-12T15:40:39.582Z,100327.09
2024-03-12T15:43:07.142Z,100322.44
2024-03-12T15:45:34.460Z,100336.63
2024-03-12T15:48:01.689Z,100339.41
2024-03-12T15:50:28.977Z,100338.69
2024-03-12T15:52:55.962Z,100346.06
2024-03-12T15:55:24.326Z,100346.06
2024-03-12T15:57:51.458Z,100343.75
2024-03-12T16:00:18.870Z,100346.66
2024-03-12T16:02:46.123Z,100340.78
2024-03-12T16:05:13.618Z,100346.56
2024-03-12T16:07:40.910Z,100351.28
2024-03-12T16:10:11.116Z,100354.91
2024-03-12T16:12:40.732Z,100359.38
2024-03-12T16:15:10.845Z,100354.31
2024-03-12T16:17:38.270Z,100359.88
2024-03-12T16:20:13.839Z,100356.13
2024-03-12T16:22:41.954Z,100358.66
2024-03-12T16:25:09.673Z,100355.31
2024-03-12T16:27:37.241Z,100365.66
2024-03-12T16:30:05.385Z,100367.81
2024-03-12T16:32:33.930Z,100371.44
2024-03-12T16:35:01.127Z,100370.59
2024-03-12T16:37:28.680Z,100367.09
2024-03-12T16:39:55.948Z,100365.66
2024-03-12T16:42:24.986Z,100359.38
2024-03-12T16:44:54.859Z,100373.59
2024-03-12T16:47:21.950Z,100363.25
2024-03-12T16:49:48.885Z,100371.19
2024-03-12T16:52:53.117Z,100364.56
2024-03-12T16:55:50.190Z,100358.94
2024-03-12T16:58:18.164Z,100369.03
2024-03-12T17:00:46.246Z,100371.91
2024-03-12T17:03:15.996Z,100368.91
2024-03-12T17:05:43.519Z,100375.88
2024-03-12T17:08:10.819Z,100372.53
2024-03-12T17:10:37.952Z,100374.31
2024-03-12T17:13:05.865Z,100378.06
2024-03-12T17:15:33.710Z,100369.03
2024-03-12T17:18:01.213Z,100375.28
2024-03-12T17:20:34.771Z,100371.91
2024-03-12T17:23:02.543Z,100369.41
2024-03-12T17:25:31.665Z,100374.78
2024-03-12T17:27:59.111Z,100369.63
2024-03-12T17:30:27.860Z,100366.38
2024-03-12T17:32:56.492Z,100363.75
2024-03-12T17:35:24.140Z,100366.16
2024-03-12T17:37:56.862Z,100364.59
2024-03-12T17:40:25.601Z,100370.59
2024-03-12T17:42:53.428Z,100373.50
2024-03-12T17:45:21.600Z,100370.94
2024-03-12T17:47:53.992Z,100361.09
2024-03-12T17:50:24.064Z,100357.63
2024-03-12T17:52:53.469Z,100362.31
2024-03-12T17:55:25.682Z,100357.97
2024-03-12T17:57:54.141Z,100361.44
2024-03-12T18:00:22.414Z,100358.69
2024-03-12T18:02:51.122Z,100360.38
2024-03-12T18:05:20.893Z,100360.50
2024-03-12T18:07:49.729Z,100360.75
2024-03-12T18:10:19.411Z,100353.16
2024-03-12T18:12:48.476Z,100357.97
2024-03-12T18:15:20.021Z,100356.63
2024-03-12T18:17:50.860Z,100359.28
2024-03-12T18:20:29.141Z,100351.69
2024-03-12T18:22:56.783Z,100349.19
2024-03-12T18:25:24.310Z,100360.59
2024-03-12T18:27:54.744Z,100362.25
2024-03-12T18:30:22.075Z,100363.47
2024-03-12T18:32:50.483Z,100362.25
2024-03-12T18:35:20.077Z,100369.50
2024-03-12T18:37:47.537Z,100371.41
2024-03-12T18:40:19.337Z,100369.50
2024-03-12T18:42:47.898Z,100368.63
2024-03-12T18:45:28.647Z,100372.97
2024-03-12T18:47:58.799Z,100377.56
2024-03-12T18:50:26.416Z,100376.72
2024-03-12T18:52:53.721Z,100381.38
2024-03-12T18:55:21.507Z,100380.31
2024-03-12T18:57:49.354Z,100372.59
2024-03-12T19:00:20.036Z,100374.56
2024-03-12T19:02:49.822Z,100369.75
2024-03-12T19:05:18.817Z,100368.16
2024-03-12T19:07:47.319Z,100367.78
2024-03-12T19:10:15.739Z,100368.75
2024-03-12T19:12:43.557Z,100371.66
2024-03-12T19:15:12.897Z,100364.03
2024-03-12T19:17:45.789Z,100369.56
2024-03-12T19:20:16.435Z,100366.44
2024-03-12T19:22:48.996Z,100369.94
2024-03-12T19:25:19.523Z,100373.56
2024-03-12T19:27:49.742Z,100373.56
2024-03-12T19:30:21.648Z,100368.59
2024-03-12T19:32:51.718Z,100366.91
2024-03-12T19:35:19.668Z,100366.78
2024-03-12T19:37:47.138Z,100377.97
2024-03-12T19:40:18.244Z,100378.09
2024-03-12T19:42:47.847Z,100382.56
2024-03-12T19:45:21.048Z,100376.66
2024-03-12T19:47:50.052Z,100379.53
2024-03-12T19:50:25.959Z,100377.81
2024-03-12T19:52:54.772Z,100375.19
2024-03-12T19:55:27.310Z,100376.28
2024-03-12T19:57:57.747Z,100375.03
2024-03-12T20:00:27.326Z,100377.31
2024-03-12T20:02:59.129Z,100365.75
2024-03-12T20:05:28.508Z,100379.94
2024-03-12T20:08:10.276Z,100382.59
2024-03-12T20:10:38.328Z,100380.19
2024-03-12T20:13:06.600Z,100384.50
2024-03-12T20:15:34.295Z,100375.13
2024-03-12T20:18:02.698Z,100382.44
2024-03-12T20:20:30.151Z,100380.63
2024-03-12T20:22:59.232Z,100387.59
2024-03-12T20:25:27.678Z,100382.66
2024-03-12T20:27:55.536Z,100381.31
2024-03-12T20:30:28.857Z,100377.94
2024-03-12T20:32:59.719Z,100376.25
2024-03-12T20:35:29.141Z,100380.81
2024-03-12T20:37:56.999Z,100377.22
2024-03-12T20:40:27.081Z,100376.25
2024-03-12T20:42:56.271Z,100372.66
2024-03-12T20:45:23.748Z,100375.06
2024-03-12T20:47:52.663Z,100373.38
2024-03-12T20:50:22.745Z,100387.44
2024-03-12T20:52:50.262Z,100389.38
2024-03-12T20:55:17.621Z,100392.13
2024-03-12T20:57:48.445Z,100390.66
2024-03-12T21:00:33.348Z,100391.72
2024-03-12T21:03:00.635Z,100392.06
2024-03-12T21:05:38.925Z,100394.72
2024-03-12T21:08:08.397Z,100393.84
2024-03-12T21:10:35.680Z,100389.66
2024-03-12T21:13:03.039Z,100397.81
2024-03-12T21:15:30.942Z,100388.41
2024-03-12T21:17:58.056Z,100390.13
2024-03-12T21:20:34.578Z,100388.63
2024-03-12T21:23:04.731Z,100394.75
2024-03-12T21:25:33.398Z,100390.34
2024-03-12T21:28:00.542Z,100386.94
2024-03-12T21:30:29.165Z,100395.84
2024-03-12T21:32:56.874Z,100401.13
2024-03-12T21:35:25.279Z,100407.34
2024-03-12T21:37:52.868Z,100402.06
2024-03-12T21:40:20.736Z,100401.56
2024-03-12T21:42:47.926Z,100403.34
2024-03-12T21:45:19.083Z,100406.72
2024-03-12T21:47:48.645Z,100405.34
2024-03-12T21:50:16.883Z,100410.41
2024-03-12T21:52:44.340Z,100403.56
2024-03-12T21:55:12.420Z,100404.97
2024-03-12T21:57:41.774Z,100402.22
2024-03-12T22:00:12.935Z,100402.09
2024-03-12T22:02:40.657Z,100405.59
2024-03-12T22:05:07.694Z,100407.91
2024-03-12T22:07:38.417Z,100401.78
2024-03-12T22:10:09.543Z,100409.81
2024-03-12T22:12:37.033Z,100406.53
2024-03-12T22:15:08.245Z,100406.41
2024-03-12T22:17:37.445Z,100400.53
2024-03-12T22:20:06.775Z,100405.72
2024-03-12T22:22:34.189Z,100396.41
2024-03-12T22:25:01.427Z,100400.75
2024-03-12T22:27:29.694Z,100398.22
2024-03-12T22:29:56.900Z,100399.06
2024-03-12T22:32:27.313Z,100414.69
2024-03-12T22:34:55.985Z,100402.44
2024-03-12T22:37:23.807Z,100412.03
2024-03-12T22:39:51.260Z,100413.09
2024-03-12T22:42:18.863Z,100418.28
2024-03-12T22:44:46.299Z,100415.88
2024-03-12T22:47:13.678Z,100422.31
2024-03-12T22:49:44.586Z,100425.91
2024-03-12T22:52:13.046Z,100415.44
2024-03-12T22:54:41.586Z,100419.16
2024-03-12T22:57:09.664Z,100417.38
2024-03-12T22:59:37.141Z,100417.25
2024-03-12T23:02:04.684Z,100420.94
2024-03-12T23:04:32.209Z,100424.66
2024-03-12T23:06:59.488Z,100429.72
2024-03-12T23:09:29.659Z,100425.91
2024-03-12T23:11:57.635Z,100425.06
2024-03-12T23:14:28.081Z,100431.19
2024-03-12T23:16:54.996Z,100426.34
2024-03-12T23:19:22.255Z,100435.44
2024-03-12T23:21:49.301Z,100431.09
2024-03-12T23:24:16.592Z,100437.94
2024-03-12T23:26:43.867Z,100439.00
2024-03-12T23:29:11.576Z,100440.09
2024-03-12T23:31:38.841Z,100442.81
2024-03-12T23:34:07.170Z,100453.59
2024-03-12T23:36:34.693Z,100452.84
2024-03-12T23:39:01.926Z,100447.69
2024-03-12T23:41:31.328Z,100448.97
2024-03-12T23:43:58.432Z,100463.63
2024-03-12T23:46:26.091Z,100454.03
2024-03-12T23:48:53.636Z,100451.59
2024-03-12T23:51:20.578Z,100457.63
2024-03-12T23:53:48.787Z,100458.88
2024-03-12T23:56:15.855Z,100457.41
2024-03-12T23:58:43.543Z,100454.03
